Highland Beach, Florida
Current Conditions -  °F | °C
As of 8:48 AM on Friday 24 Oct 2014 (Local Time) from KBCT Reporting Station
Broken Clouds Broken Clouds  
Wind Chill: 79°   Ceiling: 2600
Heat Index: 81°   Visibility: 10mi
Dew Point: 70°   Wind: 18mph
Humidity: 74%   Direction: 60°ENE
Pressure: 29.89"   Gusts: 29mph
Location:  26.4095°N, 80.0961°W
Report Text: KBCT 241248Z 06016G25KT 10SM BKN026 26/21 A2989
Loading
Personal Weather Stations






























Interactive Weather Map
Tropical Storm Tracking
New forecast layout! Learn more

10-Day Weather Forecast

Advertisements
Track Severe Weather on mobile